createdAt,value
2022-12-23T00:02:00.862Z,20.33
2022-12-23T00:04:27.373Z,19.90
2022-12-23T00:06:53.765Z,19.87
2022-12-23T00:09:21.327Z,18.43
2022-12-23T00:12:13.673Z,18.83
2022-12-23T00:14:58.827Z,17.93
2022-12-23T00:17:25.253Z,16.27
2022-12-23T00:19:51.628Z,14.80
2022-12-23T00:22:18.194Z,15.83
2022-12-23T00:24:44.620Z,14.97
2022-12-23T00:27:11.041Z,13.17
2022-12-23T00:29:37.438Z,14.73
2022-12-23T00:32:04.579Z,12.30
2022-12-23T00:34:31.005Z,13.33
2022-12-23T00:36:57.419Z,11.90
2022-12-23T00:39:42.277Z,12.03
2022-12-23T00:42:27.435Z,10.63
2022-12-23T00:45:13.802Z,19.53
2022-12-23T00:47:58.834Z,15.77
2022-12-23T00:50:25.339Z,17.87
2022-12-23T00:52:51.758Z,19.17
2022-12-23T00:55:18.241Z,20.53
2022-12-23T00:57:44.714Z,17.77
2022-12-23T01:00:11.691Z,19.83
2022-12-23T01:02:57.046Z,22.80
2022-12-23T01:05:38.909Z,23.63
2022-12-23T01:08:08.349Z,15.70
2022-12-23T01:10:39.341Z,17.47
2022-12-23T01:13:07.175Z,17.43
2022-12-23T01:15:33.918Z,15.43
2022-12-23T01:18:00.590Z,16.40
2022-12-23T01:20:27.998Z,18.20
2022-12-23T01:22:54.424Z,16.80
2022-12-23T01:25:20.838Z,21.60
2022-12-23T01:27:47.265Z,20.50
2022-12-23T01:30:13.862Z,23.50
2022-12-23T01:32:40.557Z,21.77
2022-12-23T01:35:07.120Z,19.43
2022-12-23T01:37:33.732Z,21.47
2022-12-23T01:40:00.161Z,21.13
2022-12-23T01:42:46.688Z,22.23
2022-12-23T01:45:32.363Z,27.03
2022-12-23T01:48:21.843Z,25.93
2022-12-23T01:51:05.510Z,25.03
2022-12-23T01:53:37.121Z,25.90
2022-12-23T01:56:10.601Z,26.73
2022-12-23T01:58:40.681Z,27.33
2022-12-23T02:01:27.721Z,25.53
2022-12-23T02:03:58.454Z,26.93
2022-12-23T02:06:53.297Z,24.20
2022-12-23T02:09:26.270Z,26.60
2022-12-23T02:12:30.102Z,23.77
2022-12-23T02:15:51.481Z,26.30
2022-12-23T02:18:30.109Z,24.60
2022-12-23T02:21:21.562Z,25.67
2022-12-23T02:24:00.434Z,25.27
2022-12-23T02:26:46.056Z,25.50
2022-12-23T02:29:57.365Z,24.20
2022-12-23T02:32:48.004Z,24.43
2022-12-23T02:35:35.937Z,23.30
2022-12-23T02:38:11.927Z,26.93
2022-12-23T02:41:09.147Z,27.37
2022-12-23T02:43:41.746Z,28.33
2022-12-23T02:46:20.717Z,28.90
2022-12-23T02:48:58.735Z,28.83
2022-12-23T02:51:32.575Z,29.70
2022-12-23T02:54:03.041Z,26.80
2022-12-23T02:56:33.041Z,27.33
2022-12-23T02:59:11.351Z,27.43
2022-12-23T03:01:39.907Z,28.63
2022-12-23T03:04:07.013Z,30.60
2022-12-23T03:06:39.463Z,27.77
2022-12-23T03:09:13.539Z,29.37
2022-12-23T03:11:42.934Z,33.80
2022-12-23T03:14:27.883Z,28.60
2022-12-23T03:17:09.053Z,27.33
2022-12-23T03:19:48.239Z,27.07
2022-12-23T03:22:32.918Z,26.47
2022-12-23T03:25:20.809Z,26.97
2022-12-23T03:27:59.143Z,29.63
2022-12-23T03:30:26.427Z,27.73
2022-12-23T03:32:58.200Z,29.30
2022-12-23T03:35:31.429Z,24.27
2022-12-23T03:38:01.869Z,23.77
2022-12-23T03:40:35.000Z,19.17
2022-12-23T03:43:08.246Z,20.07
2022-12-23T03:45:45.253Z,19.00
2022-12-23T03:48:29.543Z,17.80
2022-12-23T03:50:59.734Z,17.40
2022-12-23T03:53:32.418Z,19.03
2022-12-23T03:56:06.981Z,16.67
2022-12-23T03:58:43.454Z,16.80
2022-12-23T04:01:20.998Z,16.93
2022-12-23T04:04:03.511Z,15.60
2022-12-23T04:06:37.435Z,17.77
2022-12-23T04:09:07.355Z,16.83
2022-12-23T04:11:36.600Z,18.77
2022-12-23T04:14:03.242Z,16.00
2022-12-23T04:16:30.082Z,18.03
2022-12-23T04:18:56.552Z,20.97
2022-12-23T04:21:23.579Z,20.70
2022-12-23T04:23:49.971Z,21.30
2022-12-23T04:26:16.382Z,21.30
2022-12-23T04:28:42.770Z,20.40
2022-12-23T04:31:09.231Z,21.33
2022-12-23T04:33:36.153Z,23.20
2022-12-23T04:36:02.645Z,23.37
2022-12-23T04:38:29.603Z,22.03
2022-12-23T04:40:55.980Z,23.63
2022-12-23T04:43:23.569Z,26.47
2022-12-23T04:45:51.427Z,30.37
2022-12-23T04:48:18.641Z,27.30
2022-12-23T04:50:45.241Z,28.67
2022-12-23T04:53:11.644Z,27.93
2022-12-23T04:55:38.371Z,26.03
2022-12-23T04:58:04.959Z,29.40
2022-12-23T05:00:37.172Z,28.60
2022-12-23T05:03:06.140Z,26.50
2022-12-23T05:05:32.656Z,25.07
2022-12-23T05:08:05.694Z,26.03
2022-12-23T05:10:32.125Z,26.00
2022-12-23T05:12:58.658Z,24.80
2022-12-23T05:15:25.366Z,26.57
2022-12-23T05:17:51.767Z,23.73
2022-12-23T05:20:18.210Z,21.90
2022-12-23T05:22:44.639Z,25.57
2022-12-23T05:25:11.257Z,22.27
2022-12-23T05:27:37.638Z,25.87
2022-12-23T05:30:04.835Z,26.80
2022-12-23T05:32:31.276Z,23.07
2022-12-23T05:34:57.678Z,24.50
2022-12-23T05:37:24.177Z,25.60
2022-12-23T05:39:50.587Z,23.03
2022-12-23T05:42:19.311Z,26.17
2022-12-23T05:44:45.960Z,24.17
2022-12-23T05:47:12.482Z,23.40
2022-12-23T05:49:38.923Z,22.20
2022-12-23T05:52:05.649Z,26.40
2022-12-23T05:54:32.058Z,22.03
2022-12-23T05:56:58.488Z,24.47
2022-12-23T05:59:30.601Z,24.03
2022-12-23T06:01:57.708Z,22.47
2022-12-23T06:04:24.944Z,24.20
2022-12-23T06:06:51.380Z,24.77
2022-12-23T06:09:17.790Z,20.23
2022-12-23T06:11:44.257Z,20.00
2022-12-23T06:14:10.891Z,21.33
2022-12-23T06:16:37.386Z,24.20
2022-12-23T06:19:04.188Z,23.33
2022-12-23T06:21:30.895Z,22.80
2022-12-23T06:23:57.657Z,25.90
2022-12-23T06:26:24.164Z,24.67
2022-12-23T06:28:50.585Z,22.60
2022-12-23T06:31:17.031Z,24.33
2022-12-23T06:33:43.845Z,25.47
2022-12-23T06:36:10.254Z,26.17
2022-12-23T06:38:36.788Z,23.97
2022-12-23T06:41:03.387Z,23.23
2022-12-23T06:43:29.918Z,24.53
2022-12-23T06:45:56.363Z,23.87
2022-12-23T06:48:23.044Z,22.47
2022-12-23T06:50:49.489Z,23.13
2022-12-23T06:53:15.897Z,23.90
2022-12-23T06:55:42.306Z,21.30
2022-12-23T06:58:08.826Z,25.30
2022-12-23T07:00:35.687Z,23.47
2022-12-23T07:03:02.152Z,23.73
2022-12-23T07:05:36.491Z,22.13
2022-12-23T07:08:03.779Z,23.00
2022-12-23T07:10:30.250Z,19.70
2022-12-23T07:12:56.725Z,21.77
2022-12-23T07:15:23.118Z,22.37
2022-12-23T07:17:49.596Z,20.27
2022-12-23T07:20:16.801Z,23.83
2022-12-23T07:22:43.267Z,27.10
2022-12-23T07:25:09.941Z,22.63
2022-12-23T07:27:36.606Z,29.17
2022-12-23T07:30:03.468Z,25.23
2022-12-23T07:32:30.029Z,29.87
2022-12-23T07:34:56.432Z,29.30
2022-12-23T07:37:25.937Z,28.30
2022-12-23T07:39:52.337Z,30.57
2022-12-23T07:42:44.095Z,35.73
2022-12-23T07:45:05.869Z,26.80
2022-12-23T07:47:32.313Z,27.93
2022-12-23T07:49:58.731Z,28.73
2022-12-23T07:52:25.172Z,27.20
2022-12-23T07:54:51.604Z,27.87
2022-12-23T07:57:17.995Z,34.50
2022-12-23T07:59:44.402Z,34.07
2022-12-23T08:02:11.379Z,28.57
2022-12-23T08:04:42.637Z,28.67
2022-12-23T08:07:12.323Z,31.20
2022-12-23T08:09:38.749Z,33.93
2022-12-23T08:12:05.719Z,32.40
2022-12-23T08:14:32.131Z,33.47
2022-12-23T08:16:58.582Z,34.63
2022-12-23T08:19:25.001Z,35.33
2022-12-23T08:21:51.468Z,42.03
2022-12-23T08:24:17.870Z,36.27
2022-12-23T08:26:44.236Z,38.70
2022-12-23T08:29:10.687Z,34.53
2022-12-23T08:31:37.268Z,36.83
2022-12-23T08:34:03.922Z,33.80
2022-12-23T08:36:32.817Z,36.50
2022-12-23T08:39:02.772Z,36.00
2022-12-23T08:41:32.733Z,36.73
2022-12-23T08:43:59.332Z,46.47
2022-12-23T08:46:26.766Z,40.70
2022-12-23T08:48:54.115Z,42.83
2022-12-23T08:51:46.315Z,40.50
2022-12-23T08:54:13.114Z,36.03
2022-12-23T08:56:42.003Z,40.13
2022-12-23T08:59:18.727Z,43.23
2022-12-23T09:01:46.029Z,43.73
2022-12-23T09:04:12.506Z,46.40
2022-12-23T09:06:41.712Z,40.93
2022-12-23T09:09:10.666Z,43.50
2022-12-23T09:11:37.775Z,46.43
2022-12-23T09:14:06.120Z,46.20
2022-12-23T09:16:32.722Z,49.40
2022-12-23T09:18:59.334Z,46.53
2022-12-23T09:21:26.011Z,48.83
2022-12-23T09:23:52.436Z,48.73
2022-12-23T09:26:22.147Z,50.10
2022-12-23T09:28:48.599Z,43.50
2022-12-23T09:31:15.402Z,48.47
2022-12-23T09:33:42.024Z,48.70
2022-12-23T09:36:08.848Z,44.70
2022-12-23T09:38:36.096Z,48.57
2022-12-23T09:41:10.055Z,38.83
2022-12-23T09:43:52.899Z,45.40
2022-12-23T09:46:22.856Z,47.07
2022-12-23T09:49:14.719Z,48.17
2022-12-23T09:51:41.291Z,43.27
2022-12-23T09:54:17.846Z,49.40
2022-12-23T09:56:52.641Z,42.37
2022-12-23T09:59:37.049Z,44.77
2022-12-23T10:02:26.320Z,46.30
2022-12-23T10:05:26.020Z,39.60
2022-12-23T10:08:01.548Z,45.83
2022-12-23T10:10:42.805Z,48.73
2022-12-23T10:13:23.896Z,44.63
2022-12-23T10:15:51.866Z,47.67
2022-12-23T10:18:46.365Z,49.83
2022-12-23T10:21:29.881Z,47.40
2022-12-23T10:23:56.316Z,45.10
2022-12-23T10:26:29.897Z,48.67
2022-12-23T10:29:19.412Z,54.13
2022-12-23T10:32:33.565Z,58.97
2022-12-23T10:35:33.549Z,51.63
2022-12-23T10:38:16.962Z,51.57
2022-12-23T10:41:08.800Z,52.60
2022-12-23T10:43:54.521Z,50.67
2022-12-23T10:46:33.861Z,49.87
2022-12-23T10:49:20.158Z,52.23
2022-12-23T10:51:57.394Z,45.37
2022-12-23T10:54:28.847Z,54.53
2022-12-23T10:56:55.385Z,42.30
2022-12-23T10:59:28.231Z,38.33
2022-12-23T11:02:02.480Z,40.47
2022-12-23T11:04:35.121Z,45.00
2022-12-23T11:07:34.277Z,35.80
2022-12-23T11:09:54.125Z,39.07
2022-12-23T11:12:26.012Z,34.37
2022-12-23T11:14:56.537Z,37.93
2022-12-23T11:17:24.991Z,30.13
2022-12-23T11:20:20.051Z,34.23
2022-12-23T11:22:48.027Z,32.67
2022-12-23T11:25:42.254Z,33.23
2022-12-23T11:28:11.394Z,43.47
2022-12-23T11:30:56.533Z,44.00
2022-12-23T11:33:28.228Z,42.80
2022-12-23T11:36:04.385Z,43.30
2022-12-23T11:38:31.210Z,41.07
2022-12-23T11:40:58.138Z,34.40
2022-12-23T11:43:27.229Z,42.17
2022-12-23T11:46:18.067Z,37.00
2022-12-23T11:48:50.043Z,37.93
2022-12-23T11:51:26.647Z,39.50
2022-12-23T11:53:59.748Z,34.17
2022-12-23T11:56:29.427Z,32.83
2022-12-23T11:59:06.228Z,28.30
2022-12-23T12:01:33.119Z,29.73
2022-12-23T12:04:03.991Z,33.10
2022-12-23T12:06:32.477Z,35.30
2022-12-23T12:09:02.973Z,37.00
2022-12-23T12:11:36.429Z,32.37
2022-12-23T12:14:08.348Z,32.93
2022-12-23T12:16:54.398Z,36.40
2022-12-23T12:19:26.197Z,37.97
2022-12-23T12:21:59.041Z,33.43
2022-12-23T12:24:31.541Z,33.77
2022-12-23T12:27:02.582Z,30.97
2022-12-23T12:29:51.191Z,29.63
2022-12-23T12:32:53.181Z,37.80
2022-12-23T12:35:32.150Z,40.60
2022-12-23T12:38:13.242Z,40.97
2022-12-23T12:40:47.327Z,36.90
2022-12-23T12:43:33.334Z,35.60
2022-12-23T12:46:06.299Z,37.80
2022-12-23T12:48:47.380Z,36.10
2022-12-23T12:51:38.929Z,37.90
2022-12-23T12:54:32.298Z,35.33
2022-12-23T12:56:59.681Z,35.13
2022-12-23T12:59:33.954Z,36.10
2022-12-23T13:02:07.373Z,34.27
2022-12-23T13:04:58.985Z,34.03
2022-12-23T13:07:40.687Z,40.53
2022-12-23T13:10:57.332Z,42.00
2022-12-23T13:13:29.180Z,43.07
2022-12-23T13:16:22.296Z,40.27
2022-12-23T13:19:04.113Z,40.43
2022-12-23T13:21:54.974Z,44.67
2022-12-23T13:24:31.854Z,38.20
2022-12-23T13:27:11.789Z,38.43
2022-12-23T13:30:02.615Z,38.77
2022-12-23T13:32:45.680Z,39.17
2022-12-23T13:35:12.295Z,35.70
2022-12-23T13:37:53.021Z,35.93
2022-12-23T13:40:39.481Z,37.57
2022-12-23T13:43:18.382Z,39.87
2022-12-23T13:45:47.404Z,39.23
2022-12-23T13:48:41.797Z,44.63
2022-12-23T13:51:23.991Z,42.40
2022-12-23T13:54:14.591Z,41.50
2022-12-23T13:56:52.714Z,44.20
2022-12-23T13:59:19.203Z,43.00
2022-12-23T14:01:52.229Z,46.60
2022-12-23T14:04:35.268Z,49.60
2022-12-23T14:07:21.319Z,44.93
2022-12-23T14:09:53.181Z,43.67
2022-12-23T14:12:27.670Z,41.60
2022-12-23T14:15:41.843Z,44.30
2022-12-23T14:18:39.150Z,37.00
2022-12-23T14:21:29.070Z,39.37
2022-12-23T14:24:04.701Z,44.40
2022-12-23T14:26:56.381Z,42.73
2022-12-23T14:29:39.328Z,42.50
2022-12-23T14:32:20.829Z,42.97
2022-12-23T14:35:16.294Z,40.00
2022-12-23T14:37:43.589Z,37.63
2022-12-23T14:40:38.024Z,39.10
2022-12-23T14:43:23.538Z,35.50
2022-12-23T14:46:05.275Z,33.93
2022-12-23T14:48:47.852Z,32.47
2022-12-23T14:51:14.173Z,38.07
2022-12-23T14:53:53.620Z,34.83
2022-12-23T14:56:43.626Z,32.03
2022-12-23T14:59:16.393Z,35.10
2022-12-23T15:01:52.906Z,33.43
2022-12-23T15:04:34.001Z,34.90
2022-12-23T15:07:16.448Z,36.43
2022-12-23T15:10:00.485Z,39.10
2022-12-23T15:12:33.213Z,39.70
2022-12-23T15:15:14.029Z,37.10
2022-12-23T15:17:41.140Z,34.67
2022-12-23T15:20:23.013Z,29.90
2022-12-23T15:22:50.425Z,34.83
2022-12-23T15:25:29.779Z,33.63
2022-12-23T15:28:01.941Z,37.93
2022-12-23T15:30:46.058Z,35.77
2022-12-23T15:33:51.940Z,34.67
2022-12-23T15:36:06.358Z,32.33
2022-12-23T15:38:37.408Z,34.83
2022-12-23T15:41:13.380Z,37.30
2022-12-23T15:43:41.791Z,37.60
2022-12-23T15:46:26.881Z,42.60
2022-12-23T15:48:56.625Z,50.37
2022-12-23T15:52:06.481Z,50.67
2022-12-23T15:54:34.042Z,53.47
2022-12-23T15:57:02.293Z,51.70
2022-12-23T15:59:37.418Z,55.00
2022-12-23T16:02:58.295Z,49.97
2022-12-23T16:05:07.541Z,45.97
2022-12-23T16:07:40.112Z,49.27
2022-12-23T16:10:19.908Z,45.20
2022-12-23T16:12:50.187Z,45.30
2022-12-23T16:15:31.791Z,45.60
2022-12-23T16:18:25.586Z,45.70
2022-12-23T16:20:57.135Z,41.57
2022-12-23T16:23:28.584Z,44.13
2022-12-23T16:25:55.195Z,37.53
2022-12-23T16:28:26.517Z,37.33
2022-12-23T16:30:56.310Z,38.27
2022-12-23T16:33:26.253Z,34.30
2022-12-23T16:35:54.438Z,28.87
2022-12-23T16:38:25.955Z,27.67
2022-12-23T16:40:55.180Z,30.70
2022-12-23T16:43:24.258Z,30.70
2022-12-23T16:45:54.132Z,32.83
2022-12-23T16:48:30.773Z,30.07
2022-12-23T16:50:57.796Z,32.07
2022-12-23T16:53:24.342Z,30.03
2022-12-23T16:55:55.297Z,29.97
2022-12-23T16:58:25.257Z,28.07
2022-12-23T17:00:53.151Z,29.00
2022-12-23T17:03:20.563Z,28.90
2022-12-23T17:05:47.962Z,29.23
2022-12-23T17:08:14.521Z,27.83
2022-12-23T17:10:44.440Z,32.30
2022-12-23T17:13:17.474Z,33.53
2022-12-23T17:15:44.499Z,38.43
2022-12-23T17:18:17.035Z,37.87
2022-12-23T17:20:46.616Z,39.90
2022-12-23T17:23:25.568Z,41.80
2022-12-23T17:25:52.498Z,43.07
2022-12-23T17:28:19.724Z,48.20
2022-12-23T17:30:46.187Z,44.67
2022-12-23T17:33:19.285Z,44.17
2022-12-23T17:35:45.855Z,47.43
2022-12-23T17:38:16.577Z,47.57
2022-12-23T17:40:47.057Z,46.30
2022-12-23T17:43:18.174Z,46.00
2022-12-23T17:45:45.460Z,44.33
2022-12-23T17:48:19.733Z,42.70
2022-12-23T17:50:48.673Z,40.97
2022-12-23T17:53:19.569Z,38.13
2022-12-23T17:55:46.390Z,39.20
2022-12-23T17:58:13.992Z,40.13
2022-12-23T18:00:40.996Z,41.20
2022-12-23T18:03:19.508Z,39.37
2022-12-23T18:05:45.937Z,38.33
2022-12-23T18:08:12.323Z,35.20
2022-12-23T18:10:40.835Z,36.87
2022-12-23T18:13:13.956Z,33.77
2022-12-23T18:15:42.637Z,31.80
2022-12-23T18:18:26.090Z,29.17
2022-12-23T18:20:57.123Z,28.80
2022-12-23T18:23:26.598Z,25.60
2022-12-23T18:25:54.327Z,24.17
2022-12-23T18:28:20.739Z,21.50
2022-12-23T18:30:47.238Z,24.83
2022-12-23T18:33:13.972Z,24.33
2022-12-23T18:35:50.341Z,25.60
2022-12-23T18:38:17.550Z,24.67
2022-12-23T18:40:44.377Z,25.67
2022-12-23T18:43:31.121Z,24.07
2022-12-23T18:45:57.577Z,22.40
2022-12-23T18:48:24.265Z,21.77
2022-12-23T18:50:50.680Z,23.40
2022-12-23T18:53:25.211Z,21.97
2022-12-23T18:55:53.173Z,22.70
2022-12-23T18:58:20.204Z,21.63
2022-12-23T19:00:48.252Z,22.60
2022-12-23T19:03:27.324Z,21.47
2022-12-23T19:05:55.202Z,22.97
2022-12-23T19:08:26.720Z,21.93
2022-12-23T19:10:55.175Z,20.33
2022-12-23T19:13:22.527Z,23.73
2022-12-23T19:15:49.421Z,22.83
2022-12-23T19:18:18.610Z,17.40
2022-12-23T19:20:46.200Z,19.40
2022-12-23T19:23:12.900Z,21.00
2022-12-23T19:25:50.767Z,16.70
2022-12-23T19:28:20.899Z,18.50
2022-12-23T19:30:47.403Z,21.80
2022-12-23T19:33:13.834Z,16.93
2022-12-23T19:35:44.091Z,18.40
2022-12-23T19:38:12.337Z,17.87
2022-12-23T19:40:39.965Z,18.27
2022-12-23T19:43:06.790Z,16.37
2022-12-23T19:45:33.256Z,17.17
2022-12-23T19:47:59.686Z,15.67
2022-12-23T19:50:27.114Z,15.70
2022-12-23T19:52:55.140Z,15.23
2022-12-23T19:55:21.882Z,14.33
2022-12-23T19:57:49.163Z,15.87
2022-12-23T20:00:15.873Z,14.73
2022-12-23T20:02:43.321Z,16.77
2022-12-23T20:05:10.136Z,13.80
2022-12-23T20:07:36.936Z,14.37
2022-12-23T20:10:05.287Z,13.60
2022-12-23T20:12:32.086Z,14.20
2022-12-23T20:14:58.488Z,13.70
2022-12-23T20:17:25.407Z,14.23
2022-12-23T20:19:51.818Z,15.03
2022-12-23T20:22:18.292Z,13.80
2022-12-23T20:24:45.026Z,14.13
2022-12-23T20:27:13.947Z,15.03
2022-12-23T20:29:42.095Z,14.77
2022-12-23T20:32:08.526Z,17.67
2022-12-23T20:34:39.567Z,15.23
2022-12-23T20:37:07.462Z,18.23
2022-12-23T20:39:34.278Z,17.57
2022-12-23T20:42:00.889Z,18.13
2022-12-23T20:44:36.551Z,16.30
2022-12-23T20:47:05.372Z,18.20
2022-12-23T20:49:31.986Z,17.60
2022-12-23T20:51:58.387Z,19.00
2022-12-23T20:54:32.132Z,16.47
2022-12-23T20:56:59.816Z,18.87
2022-12-23T20:59:26.492Z,18.87
2022-12-23T21:01:53.073Z,18.57
2022-12-23T21:04:20.380Z,19.47
2022-12-23T21:06:46.782Z,20.77
2022-12-23T21:09:15.050Z,19.90
2022-12-23T21:11:44.323Z,19.53
2022-12-23T21:14:11.239Z,17.90
2022-12-23T21:16:38.748Z,20.33
2022-12-23T21:19:13.023Z,30.53
2022-12-23T21:21:39.621Z,27.03
2022-12-23T21:24:06.735Z,19.93
2022-12-23T21:26:35.338Z,18.83
2022-12-23T21:29:04.584Z,18.83
2022-12-23T21:31:32.934Z,19.00
2022-12-23T21:34:00.207Z,19.10
2022-12-23T21:36:31.136Z,18.97
2022-12-23T21:38:58.429Z,19.00
2022-12-23T21:41:28.062Z,18.20
2022-12-23T21:43:56.279Z,21.10
2022-12-23T21:46:24.215Z,20.33
2022-12-23T21:48:51.847Z,19.77
2022-12-23T21:51:21.365Z,19.47
2022-12-23T21:53:50.140Z,19.47
2022-12-23T21:56:27.114Z,20.30
2022-12-23T21:58:58.447Z,20.00
2022-12-23T22:01:25.872Z,17.63
2022-12-23T22:03:53.609Z,18.90
2022-12-23T22:06:23.352Z,18.40
2022-12-23T22:08:51.483Z,16.90
2022-12-23T22:11:30.371Z,16.67
2022-12-23T22:13:58.674Z,17.30
2022-12-23T22:16:27.145Z,18.17
2022-12-23T22:18:54.717Z,17.53
2022-12-23T22:21:24.107Z,17.70
2022-12-23T22:23:52.149Z,16.07
2022-12-23T22:26:25.608Z,16.50
2022-12-23T22:28:57.798Z,17.33
2022-12-23T22:31:24.215Z,17.23
2022-12-23T22:33:50.689Z,17.60
2022-12-23T22:36:17.541Z,19.50
2022-12-23T22:38:44.405Z,16.73
2022-12-23T22:41:11.098Z,16.27
2022-12-23T22:43:38.073Z,17.37
2022-12-23T22:46:05.592Z,16.13
2022-12-23T22:48:32.296Z,16.87
2022-12-23T22:51:26.489Z,17.80
2022-12-23T22:53:53.409Z,17.20
2022-12-23T22:56:21.534Z,18.53
2022-12-23T22:58:49.033Z,15.10
2022-12-23T23:01:22.279Z,17.30
2022-12-23T23:03:54.172Z,18.20
2022-12-23T23:06:20.560Z,16.03
2022-12-23T23:08:47.010Z,16.60
2022-12-23T23:11:13.447Z,16.37
2022-12-23T23:13:42.601Z,15.67
2022-12-23T23:16:09.195Z,13.37
2022-12-23T23:18:35.734Z,17.40
2022-12-23T23:21:03.559Z,16.37
2022-12-23T23:23:29.950Z,15.43
2022-12-23T23:25:56.439Z,16.80
2022-12-23T23:28:23.175Z,16.03
2022-12-23T23:30:59.065Z,16.17
2022-12-23T23:33:36.006Z,14.83
2022-12-23T23:36:03.357Z,14.50
2022-12-23T23:38:29.805Z,13.70
2022-12-23T23:40:57.958Z,16.07
2022-12-23T23:43:25.166Z,15.57
2022-12-23T23:45:52.391Z,14.47
2022-12-23T23:48:19.088Z,14.73
2022-12-23T23:50:45.598Z,14.90
2022-12-23T23:53:12.437Z,13.73
2022-12-23T23:55:39.389Z,13.50
2022-12-23T23:58:07.294Z,14.50
